Time;durP1;ratioP1;P1;durP2;ratioP2;P2;SDS_P1;SDS_P2;PMS_P1;PMS_P2;Temp;Humidity;BMP_temperature;BMP_pressure;BME280_temperature;BME280_humidity;BME280_pressure;Samples;Min_cycle;Max_cycle;Signal;HPM_P1;HPM_P2
2022/06/09 00:04:14;;;;;;;0.65;0.60;;;;;;;;;;10409228;28;20021;-41
2022/06/09 00:09:20;;;;;;;0.80;0.70;;;;;;;;;;10406409;28;20036;-41
2022/06/09 00:14:20;;;;;;;2.15;0.80;;;;;;;;;;10407872;28;20057;-42
2022/06/09 00:19:22;;;;;;;1.00;0.77;;;;;;;;;;10408937;28;20122;-41
2022/06/09 00:24:22;;;;;;;1.50;0.80;;;;;;;;;;10408172;28;20095;-41
2022/06/09 00:29:23;;;;;;;1.33;0.70;;;;;;;;;;10408906;28;20033;-41
2022/06/09 00:34:23;;;;;;;1.10;0.98;;;;;;;;;;10408079;28;20504;-41
2022/06/09 00:39:24;;;;;;;5.05;0.80;;;;;;;;;;10408087;28;20084;-40
2022/06/09 00:44:29;;;;;;;10.57;1.45;;;;;;;;;;10405729;28;20036;-40
2022/06/09 00:49:52;;;;;;;2.00;0.80;;;;;;;;;;10407673;28;20032;-40
2022/06/09 00:54:58;;;;;;;0.70;0.70;;;;;;;;;;10395316;28;20052;-40
2022/06/09 01:00:10;;;;;;;1.27;0.85;;;;;;;;;;10394398;28;20025;-40
2022/06/09 01:05:14;;;;;;;4.80;1.17;;;;;;;;;;10406838;28;20032;-41
2022/06/09 01:10:14;;;;;;;1.27;0.93;;;;;;;;;;10405943;28;20063;-40
2022/06/09 01:15:19;;;;;;;1.73;0.75;;;;;;;;;;10407822;28;20114;-40
2022/06/09 01:20:46;;;;;;;0.73;0.60;;;;;;;;;;10405722;28;20053;-40
2022/06/09 01:26:15;;;;;;;3.40;0.73;;;;;;;;;;10392431;28;20025;-40
2022/06/09 01:31:49;;;;;;;0.63;0.63;;;;;;;;;;10404996;28;20397;-40
2022/06/09 01:37:15;;;;;;;0.80;0.60;;;;;;;;;;10395607;28;20033;-40
2022/06/09 01:42:27;;;;;;;3.55;0.77;;;;;;;;;;10392402;28;20030;-40
2022/06/09 01:47:54;;;;;;;1.23;0.70;;;;;;;;;;10411726;28;20034;-40
2022/06/09 01:52:57;;;;;;;2.33;0.80;;;;;;;;;;10399543;28;20034;-41
2022/06/09 01:58:01;;;;;;;1.67;0.70;;;;;;;;;;10402099;28;20026;-41
2022/06/09 02:03:14;;;;;;;2.40;0.80;;;;;;;;;;10407137;28;20163;-40
2022/06/09 02:08:19;;;;;;;1.75;0.73;;;;;;;;;;10413163;28;20508;-41
2022/06/09 02:13:30;;;;;;;0.70;0.70;;;;;;;;;;10410838;28;20029;-40
2022/06/09 02:18:37;;;;;;;1.35;0.60;;;;;;;;;;10411514;28;20025;-41
2022/06/09 02:23:38;;;;;;;0.68;0.68;;;;;;;;;;10388136;28;20401;-40
2022/06/09 02:28:39;;;;;;;0.95;0.77;;;;;;;;;;10409038;28;20022;-40
2022/06/09 02:33:39;;;;;;;2.60;0.70;;;;;;;;;;10409118;28;20477;-40
2022/06/09 02:38:40;;;;;;;0.60;0.60;;;;;;;;;;10398746;28;20240;-40
2022/06/09 02:43:41;;;;;;;0.60;0.60;;;;;;;;;;10412249;28;20097;-40
2022/06/09 02:48:42;;;;;;;0.60;0.60;;;;;;;;;;10410517;28;20538;-41
2022/06/09 02:53:42;;;;;;;1.20;0.82;;;;;;;;;;10412035;28;20088;-42
2022/06/09 02:58:43;;;;;;;0.70;0.60;;;;;;;;;;10411004;28;20117;-40
2022/06/09 03:03:44;;;;;;;1.98;0.50;;;;;;;;;;10411422;28;20381;-40
2022/06/09 03:08:45;;;;;;;1.95;0.93;;;;;;;;;;10397833;28;20136;-40
2022/06/09 03:13:46;;;;;;;1.70;0.60;;;;;;;;;;10410938;28;20113;-40
2022/06/09 03:18:47;;;;;;;2.10;0.70;;;;;;;;;;10408011;28;20059;-41
2022/06/09 03:23:49;;;;;;;0.43;0.43;;;;;;;;;;10408276;28;20045;-42
2022/06/09 03:28:54;;;;;;;0.60;0.60;;;;;;;;;;10411336;28;20022;-42
2022/06/09 03:33:54;;;;;;;0.88;0.60;;;;;;;;;;10409750;28;20478;-42
2022/06/09 03:38:55;;;;;;;0.40;0.40;;;;;;;;;;10395699;28;20037;-43
2022/06/09 03:43:56;;;;;;;0.65;0.43;;;;;;;;;;10410236;28;20370;-42
2022/06/09 03:48:57;;;;;;;3.30;0.55;;;;;;;;;;10409726;28;20029;-41
2022/06/09 03:53:57;;;;;;;0.30;0.30;;;;;;;;;;10396008;28;20400;-42
2022/06/09 03:58:58;;;;;;;0.50;0.50;;;;;;;;;;10401455;28;20361;-41
2022/06/09 04:03:58;;;;;;;0.95;0.52;;;;;;;;;;10396909;28;20034;-42
2022/06/09 04:08:59;;;;;;;1.17;0.75;;;;;;;;;;10407041;28;20111;-42
2022/06/09 04:14:00;;;;;;;1.02;0.50;;;;;;;;;;10408339;28;20025;-42
2022/06/09 04:19:05;;;;;;;0.40;0.40;;;;;;;;;;10408421;28;20029;-42
2022/06/09 04:24:06;;;;;;;3.67;0.50;;;;;;;;;;10393197;28;20132;-42
2022/06/09 04:29:13;;;;;;;3.47;0.70;;;;;;;;;;10400150;28;20298;-42
2022/06/09 04:34:14;;;;;;;0.77;0.60;;;;;;;;;;10401506;28;20021;-43
2022/06/09 04:39:14;;;;;;;0.43;0.43;;;;;;;;;;10407882;28;20029;-40
2022/06/09 04:44:15;;;;;;;0.43;0.43;;;;;;;;;;10407278;28;20400;-41
2022/06/09 04:49:16;;;;;;;0.90;0.50;;;;;;;;;;10406984;28;20040;-42
2022/06/09 04:54:16;;;;;;;0.65;0.55;;;;;;;;;;10407141;28;20025;-40
2022/06/09 04:59:17;;;;;;;0.50;0.38;;;;;;;;;;10406340;28;20160;-42
2022/06/09 05:04:17;;;;;;;0.45;0.45;;;;;;;;;;10404767;28;20032;-41
2022/06/09 05:09:18;;;;;;;3.20;0.57;;;;;;;;;;10407793;28;20037;-41
2022/06/09 05:14:18;;;;;;;3.35;0.50;;;;;;;;;;10401130;28;20377;-41
2022/06/09 05:19:19;;;;;;;1.50;0.60;;;;;;;;;;10404882;28;20389;-42
2022/06/09 05:24:20;;;;;;;3.47;1.00;;;;;;;;;;10410975;28;20451;-45
2022/06/09 05:29:21;;;;;;;1.52;0.60;;;;;;;;;;10413363;28;20029;-45
2022/06/09 05:34:21;;;;;;;3.38;0.70;;;;;;;;;;10412524;28;20033;-45
2022/06/09 05:44:56;;;;;;;4.18;0.65;;;;;;;;;;10406204;28;20033;-44
2022/06/09 05:49:57;;;;;;;5.15;0.70;;;;;;;;;;10409778;28;20473;-43
2022/06/09 05:54:58;;;;;;;4.82;0.60;;;;;;;;;;10413288;28;20029;-44
2022/06/09 05:59:58;;;;;;;3.42;0.57;;;;;;;;;;10417208;28;20033;-42
2022/06/09 06:04:59;;;;;;;11.38;1.38;;;;;;;;;;10413893;28;20033;-42
2022/06/09 06:09:59;;;;;;;13.90;1.30;;;;;;;;;;10411404;28;20076;-46
2022/06/09 06:15:00;;;;;;;7.28;1.13;;;;;;;;;;10412321;28;20029;-45
2022/06/09 06:20:01;;;;;;;5.97;1.65;;;;;;;;;;10412811;28;20111;-43
2022/06/09 06:25:04;;;;;;;14.63;1.20;;;;;;;;;;10410722;28;20049;-42
2022/06/09 06:30:06;;;;;;;10.77;1.20;;;;;;;;;;10411930;28;20035;-44
2022/06/09 06:35:08;;;;;;;2.28;0.90;;;;;;;;;;10411367;28;20072;-45
2022/06/09 06:40:14;;;;;;;12.50;0.93;;;;;;;;;;10412096;28;20076;-42
2022/06/09 06:45:16;;;;;;;3.50;1.00;;;;;;;;;;10411049;28;20036;-41
2022/06/09 06:50:16;;;;;;;6.32;0.93;;;;;;;;;;10412342;28;20473;-43
2022/06/09 06:55:20;;;;;;;5.65;0.90;;;;;;;;;;10412150;28;20029;-45
2022/06/09 07:00:23;;;;;;;2.97;0.80;;;;;;;;;;10411192;28;20120;-42
2022/06/09 07:05:24;;;;;;;4.47;0.80;;;;;;;;;;10410373;28;20038;-42
2022/06/09 07:10:25;;;;;;;4.63;0.85;;;;;;;;;;10410455;28;20029;-43
2022/06/09 07:15:26;;;;;;;5.40;1.27;;;;;;;;;;10411294;28;20048;-43
2022/06/09 07:20:28;;;;;;;2.00;0.65;;;;;;;;;;10408758;28;20074;-45
2022/06/09 07:25:29;;;;;;;4.55;1.00;;;;;;;;;;10389081;28;20373;-44
2022/06/09 07:30:29;;;;;;;4.03;0.80;;;;;;;;;;10393265;28;20037;-44
2022/06/09 07:35:33;;;;;;;10.27;1.48;;;;;;;;;;10408553;28;20026;-45
2022/06/09 07:40:36;;;;;;;7.80;1.27;;;;;;;;;;10409691;28;20131;-44
2022/06/09 07:45:38;;;;;;;6.45;0.80;;;;;;;;;;10408350;28;20029;-45
2022/06/09 07:50:39;;;;;;;8.13;0.80;;;;;;;;;;10408529;28;20147;-44
2022/06/09 07:55:40;;;;;;;2.22;0.77;;;;;;;;;;10409077;28;20100;-45
2022/06/09 08:00:41;;;;;;;2.40;0.80;;;;;;;;;;10409422;28;20043;-43
2022/06/09 08:05:42;;;;;;;1.02;0.52;;;;;;;;;;10408322;28;20435;-44
2022/06/09 08:10:44;;;;;;;2.00;0.55;;;;;;;;;;10408330;28;20025;-44
2022/06/09 08:15:46;;;;;;;3.42;0.73;;;;;;;;;;10408553;28;20188;-45
2022/06/09 08:20:46;;;;;;;1.15;0.70;;;;;;;;;;10407947;28;20054;-44
2022/06/09 08:25:49;;;;;;;1.60;0.50;;;;;;;;;;10407719;28;20362;-44
2022/06/09 08:30:54;;;;;;;6.15;1.13;;;;;;;;;;10407964;28;20017;-46
2022/06/09 08:35:55;;;;;;;1.92;0.82;;;;;;;;;;10385089;28;20267;-44
2022/06/09 08:41:18;;;;;;;1.33;0.70;;;;;;;;;;10402479;28;20087;-45
2022/06/09 08:46:18;;;;;;;1.58;1.05;;;;;;;;;;10406321;28;20045;-45
2022/06/09 08:51:35;;;;;;;1.93;0.70;;;;;;;;;;10406919;28;20014;-44
2022/06/09 08:56:36;;;;;;;1.63;0.70;;;;;;;;;;10403644;28;20442;-46
2022/06/09 09:02:01;;;;;;;4.55;0.70;;;;;;;;;;10400335;28;20027;-44
2022/06/09 09:07:30;;;;;;;2.13;0.57;;;;;;;;;;10406584;28;20053;-46
2022/06/09 09:12:55;;;;;;;0.65;0.60;;;;;;;;;;10420048;28;20087;-43
2022/06/09 09:18:44;;;;;;;0.40;0.40;;;;;;;;;;10406325;28;20037;-42
2022/06/09 09:24:17;;;;;;;2.88;0.60;;;;;;;;;;10411021;28;20041;-46
2022/06/09 09:29:42;;;;;;;2.13;0.60;;;;;;;;;;10393102;28;20033;-41
2022/06/09 09:34:46;;;;;;;1.38;0.50;;;;;;;;;;10406185;28;20048;-43
2022/06/09 09:40:01;;;;;;;0.52;0.40;;;;;;;;;;10405182;28;20064;-43
2022/06/09 09:45:10;;;;;;;1.10;0.60;;;;;;;;;;10392554;28;20549;-44
2022/06/09 09:50:36;;;;;;;0.65;0.50;;;;;;;;;;10406606;28;20022;-43
2022/06/09 09:55:49;;;;;;;1.55;0.63;;;;;;;;;;10404245;28;20499;-43
2022/06/09 10:00:58;;;;;;;3.15;0.90;;;;;;;;;;10391848;28;20041;-46
2022/06/09 10:16:53;;;;;;;1.50;0.75;;;;;;;;;;10413125;28;20029;-42
2022/06/09 10:21:59;;;;;;;4.07;0.77;;;;;;;;;;10412168;28;20476;-44
2022/06/09 10:27:01;;;;;;;1.27;0.93;;;;;;;;;;10413722;28;20033;-42
2022/06/09 10:32:04;;;;;;;4.13;0.70;;;;;;;;;;10413070;28;20026;-42
2022/06/09 10:37:21;;;;;;;1.77;0.70;;;;;;;;;;10411429;28;20049;-43
2022/06/09 10:42:52;;;;;;;3.30;0.88;;;;;;;;;;10414262;28;20018;-46
2022/06/09 10:59:53;;;;;;;2.33;0.60;;;;;;;;;;10399626;28;20033;-41
2022/06/09 11:04:54;;;;;;;3.05;0.90;;;;;;;;;;10406167;28;20025;-43
2022/06/09 11:10:25;;;;;;;1.55;0.98;;;;;;;;;;10410634;28;20036;-42
2022/06/09 11:15:51;;;;;;;2.45;1.20;;;;;;;;;;10409462;28;20025;-42
2022/06/09 11:20:54;;;;;;;2.22;1.20;;;;;;;;;;10408061;28;20057;-44
2022/06/09 11:26:46;;;;;;;3.60;1.00;;;;;;;;;;10409523;28;20165;-43
2022/06/09 11:32:03;;;;;;;1.17;1.00;;;;;;;;;;10416206;28;20091;-41
2022/06/09 11:37:24;;;;;;;3.05;0.90;;;;;;;;;;10403390;28;20033;-42
2022/06/09 11:42:53;;;;;;;5.13;1.23;;;;;;;;;;10407366;28;20029;-44
2022/06/09 11:47:57;;;;;;;2.25;1.10;;;;;;;;;;10401381;28;20065;-46
2022/06/09 11:52:59;;;;;;;2.80;1.05;;;;;;;;;;10409664;28;20059;-43
2022/06/09 11:58:00;;;;;;;1.02;0.82;;;;;;;;;;10406762;28;20473;-45
2022/06/09 12:04:02;;;;;;;4.32;0.60;;;;;;;;;;10399244;28;20041;-45
2022/06/09 12:09:40;;;;;;;2.00;1.00;;;;;;;;;;10392579;28;20049;-43
2022/06/09 12:14:42;;;;;;;4.32;0.73;;;;;;;;;;10397936;28;20029;-46
2022/06/09 12:19:55;;;;;;;0.82;0.73;;;;;;;;;;10400730;28;20032;-45
2022/06/09 12:25:16;;;;;;;4.53;0.63;;;;;;;;;;10400700;28;20060;-44
2022/06/09 12:30:33;;;;;;;4.10;0.70;;;;;;;;;;10402654;28;20060;-46
2022/06/09 12:35:40;;;;;;;1.50;0.60;;;;;;;;;;10404207;28;20061;-46
2022/06/09 12:40:46;;;;;;;4.72;0.73;;;;;;;;;;10408836;28;20143;-45
2022/06/09 12:45:59;;;;;;;2.88;0.77;;;;;;;;;;10384234;28;20034;-42
2022/06/09 12:51:04;;;;;;;4.30;0.60;;;;;;;;;;10405120;28;20037;-44
2022/06/09 12:56:38;;;;;;;4.93;0.80;;;;;;;;;;10406408;28;20036;-46
2022/06/09 13:02:00;;;;;;;0.40;0.40;;;;;;;;;;10420345;28;20025;-45
2022/06/09 13:07:01;;;;;;;0.70;0.60;;;;;;;;;;10405756;28;20041;-43
2022/06/09 13:17:38;;;;;;;1.63;0.57;;;;;;;;;;10392986;28;20068;-42
2022/06/09 13:22:39;;;;;;;3.22;0.70;;;;;;;;;;10401514;28;20063;-41
2022/06/09 13:27:41;;;;;;;0.93;0.60;;;;;;;;;;10407316;28;20034;-41
2022/06/09 13:32:47;;;;;;;6.40;0.70;;;;;;;;;;10400501;28;20059;-41
2022/06/09 13:37:48;;;;;;;1.40;0.60;;;;;;;;;;10402719;28;20044;-42
2022/06/09 13:42:54;;;;;;;2.60;0.88;;;;;;;;;;10408935;28;20101;-42
2022/06/09 13:48:12;;;;;;;1.88;0.75;;;;;;;;;;10412154;28;20025;-42
2022/06/09 13:53:19;;;;;;;0.80;0.50;;;;;;;;;;10412690;28;20033;-44
2022/06/09 13:58:20;;;;;;;5.60;0.60;;;;;;;;;;10413098;28;20069;-44
2022/06/09 14:03:34;;;;;;;0.57;0.57;;;;;;;;;;10413861;28;20648;-44
2022/06/09 14:08:40;;;;;;;1.80;0.60;;;;;;;;;;10410186;28;20113;-42
2022/06/09 14:13:41;;;;;;;0.52;0.50;;;;;;;;;;10412337;28;20053;-43
2022/06/09 14:18:41;;;;;;;2.22;0.90;;;;;;;;;;10412187;28;20033;-43
2022/06/09 14:23:42;;;;;;;0.60;0.60;;;;;;;;;;10412635;28;20041;-45
2022/06/09 14:28:43;;;;;;;0.90;0.60;;;;;;;;;;10412332;28;20397;-47
2022/06/09 14:33:44;;;;;;;2.72;0.70;;;;;;;;;;10411994;28;20104;-47
2022/06/09 14:38:46;;;;;;;2.03;0.80;;;;;;;;;;10410916;28;20041;-44
2022/06/09 14:43:47;;;;;;;1.52;0.70;;;;;;;;;;10411426;28;20049;-43
2022/06/09 14:48:48;;;;;;;0.65;0.60;;;;;;;;;;10410249;28;20469;-43
2022/06/09 14:53:49;;;;;;;9.63;1.25;;;;;;;;;;10409784;28;20017;-42
2022/06/09 14:58:49;;;;;;;43.92;2.33;;;;;;;;;;10411565;28;20473;-42
2022/06/09 15:03:50;;;;;;;49.15;3.28;;;;;;;;;;10411029;28;20037;-54
2022/06/09 15:08:54;;;;;;;33.25;2.22;;;;;;;;;;10411646;28;20021;-57
2022/06/09 15:13:54;;;;;;;43.42;3.33;;;;;;;;;;10408184;28;20116;-55
2022/06/09 15:18:56;;;;;;;21.58;1.70;;;;;;;;;;10407124;22;20140;-45
2022/06/09 15:23:57;;;;;;;7.88;1.63;;;;;;;;;;10380167;28;20081;-45
2022/06/09 15:29:02;;;;;;;14.10;2.03;;;;;;;;;;10374373;28;20041;-45
2022/06/09 15:34:03;;;;;;;19.00;1.92;;;;;;;;;;10376944;28;20479;-49
2022/06/09 15:39:05;;;;;;;10.18;1.60;;;;;;;;;;10379252;28;20385;-45
2022/06/09 15:44:07;;;;;;;12.68;2.13;;;;;;;;;;10380803;28;20041;-44
2022/06/09 15:49:07;;;;;;;11.82;2.55;;;;;;;;;;10367184;28;20022;-45
2022/06/09 15:54:08;;;;;;;18.05;2.22;;;;;;;;;;10367702;28;20430;-47
2022/06/09 15:59:09;;;;;;;5.47;1.63;;;;;;;;;;10351700;28;20040;-49
2022/06/09 16:04:09;;;;;;;7.95;1.73;;;;;;;;;;10364865;28;20021;-47
2022/06/09 16:09:10;;;;;;;9.88;1.30;;;;;;;;;;10370896;28;20398;-48
2022/06/09 16:14:15;;;;;;;4.63;1.30;;;;;;;;;;10364242;28;20033;-49
2022/06/09 16:19:18;;;;;;;5.37;1.20;;;;;;;;;;10426103;23;20076;-49
2022/06/09 16:24:19;;;;;;;3.70;1.10;;;;;;;;;;10399669;28;20512;-50
2022/06/09 16:29:19;;;;;;;5.90;0.98;;;;;;;;;;10408165;28;20921;-46
2022/06/09 16:34:20;;;;;;;4.15;0.80;;;;;;;;;;10408572;28;20029;-50
2022/06/09 16:39:22;;;;;;;1.05;0.88;;;;;;;;;;10409216;28;20022;-46
2022/06/09 16:44:23;;;;;;;1.08;0.80;;;;;;;;;;10394411;28;20069;-49
2022/06/09 16:49:25;;;;;;;14.45;1.02;;;;;;;;;;10408017;28;20634;-48
2022/06/09 16:54:25;;;;;;;2.88;0.90;;;;;;;;;;10393687;28;20399;-50
2022/06/09 16:59:27;;;;;;;2.50;0.70;;;;;;;;;;10408305;28;20029;-49
2022/06/09 17:04:28;;;;;;;1.98;1.00;;;;;;;;;;10409531;28;20130;-48
2022/06/09 17:09:30;;;;;;;2.45;1.10;;;;;;;;;;10401382;28;20108;-48
2022/06/09 17:14:31;;;;;;;3.55;1.42;;;;;;;;;;10400861;28;20661;-48
2022/06/09 17:19:32;;;;;;;2.88;1.00;;;;;;;;;;10401790;28;20136;-50
2022/06/09 17:24:32;;;;;;;2.65;1.15;;;;;;;;;;10402336;28;20021;-48
2022/06/09 17:29:35;;;;;;;2.03;1.40;;;;;;;;;;10394883;28;20056;-49
2022/06/09 17:34:36;;;;;;;6.93;1.52;;;;;;;;;;10388637;28;20029;-49
2022/06/09 17:39:37;;;;;;;2.72;1.52;;;;;;;;;;10404199;28;20069;-50
2022/06/09 17:44:37;;;;;;;5.00;1.65;;;;;;;;;;10405537;28;20107;-51
2022/06/09 17:49:38;;;;;;;2.55;1.40;;;;;;;;;;10408973;28;20044;-48
2022/06/09 17:54:39;;;;;;;1.73;1.23;;;;;;;;;;10398224;28;20034;-48
2022/06/09 17:59:39;;;;;;;3.08;1.95;;;;;;;;;;10396378;28;20037;-48
2022/06/09 18:04:40;;;;;;;4.53;1.50;;;;;;;;;;10400504;28;20123;-48
2022/06/09 18:09:41;;;;;;;2.65;1.60;;;;;;;;;;10403476;28;20026;-49
2022/06/09 18:14:43;;;;;;;2.35;1.52;;;;;;;;;;10402460;28;20026;-50
2022/06/09 18:19:44;;;;;;;2.22;1.45;;;;;;;;;;10402594;28;20428;-48
2022/06/09 18:24:44;;;;;;;5.45;1.55;;;;;;;;;;10404022;28;20041;-49
2022/06/09 18:29:45;;;;;;;2.50;1.58;;;;;;;;;;10412438;28;20183;-49
2022/06/09 18:34:47;;;;;;;4.88;2.45;;;;;;;;;;10406113;28;20510;-47
2022/06/09 18:39:47;;;;;;;1.95;1.35;;;;;;;;;;10400363;28;20084;-47
2022/06/09 18:44:48;;;;;;;3.25;1.33;;;;;;;;;;10414232;28;20056;-46
2022/06/09 18:49:48;;;;;;;2.33;1.30;;;;;;;;;;10398151;28;20474;-50
2022/06/09 18:54:52;;;;;;;4.15;1.50;;;;;;;;;;10395443;28;20032;-49
2022/06/09 18:59:53;;;;;;;3.45;1.73;;;;;;;;;;10400883;28;20384;-47
2022/06/09 19:04:53;;;;;;;5.07;1.60;;;;;;;;;;10392936;28;20048;-45
2022/06/09 19:09:54;;;;;;;4.97;1.88;;;;;;;;;;10401021;28;20060;-50
2022/06/09 19:14:55;;;;;;;1.80;1.20;;;;;;;;;;10399845;28;20522;-48
2022/06/09 19:19:56;;;;;;;3.03;1.33;;;;;;;;;;10399159;28;20057;-49
2022/06/09 19:24:56;;;;;;;2.40;1.10;;;;;;;;;;10404561;28;20120;-48
2022/06/09 19:29:57;;;;;;;1.42;0.82;;;;;;;;;;10409060;28;20463;-47
2022/06/09 19:34:57;;;;;;;1.85;0.88;;;;;;;;;;10391827;28;20034;-47
2022/06/09 19:39:58;;;;;;;2.05;1.00;;;;;;;;;;10404691;28;20124;-48
2022/06/09 19:45:00;;;;;;;1.65;0.80;;;;;;;;;;10397901;28;20041;-50
2022/06/09 19:50:03;;;;;;;1.27;0.77;;;;;;;;;;10408353;28;20056;-47
2022/06/09 19:55:04;;;;;;;0.70;0.60;;;;;;;;;;10401916;28;20025;-46
2022/06/09 20:00:12;;;;;;;1.50;0.70;;;;;;;;;;10402005;28;20041;-48
2022/06/09 20:05:13;;;;;;;2.83;0.90;;;;;;;;;;10406402;28;20021;-50
2022/06/09 20:10:21;;;;;;;6.03;0.93;;;;;;;;;;10412478;28;20814;-46
2022/06/09 20:15:26;;;;;;;6.95;1.00;;;;;;;;;;10391299;28;20072;-46
2022/06/09 20:20:30;;;;;;;1.98;0.88;;;;;;;;;;10399331;28;20025;-46
2022/06/09 20:25:33;;;;;;;12.77;1.67;;;;;;;;;;10409369;28;20029;-45
2022/06/09 20:30:37;;;;;;;9.05;1.40;;;;;;;;;;10391624;28;20041;-45
2022/06/09 20:35:38;;;;;;;5.85;1.25;;;;;;;;;;10401710;28;20091;-46
2022/06/09 20:40:41;;;;;;;9.88;1.50;;;;;;;;;;10399828;28;20115;-44
2022/06/09 20:45:43;;;;;;;1.40;1.20;;;;;;;;;;10399623;28;20032;-45
2022/06/09 20:50:45;;;;;;;1.73;1.42;;;;;;;;;;10406635;28;20021;-44
2022/06/09 20:55:46;;;;;;;3.15;1.38;;;;;;;;;;10400999;28;20108;-44
2022/06/09 21:00:47;;;;;;;7.75;1.50;;;;;;;;;;10403051;28;20045;-44
2022/06/09 21:05:49;;;;;;;4.78;1.50;;;;;;;;;;10396951;28;20044;-45
2022/06/09 21:21:29;;;;;;;13.40;2.20;;;;;;;;;;10400548;28;20459;-45
2022/06/09 21:26:30;;;;;;;3.72;1.70;;;;;;;;;;10394677;28;20029;-45
2022/06/09 21:31:31;;;;;;;3.10;1.83;;;;;;;;;;10400752;28;20029;-44
2022/06/09 21:36:32;;;;;;;5.22;2.03;;;;;;;;;;10400578;28;20037;-44
2022/06/09 21:41:32;;;;;;;9.00;1.80;;;;;;;;;;10404800;28;20096;-47
2022/06/09 21:46:33;;;;;;;6.07;2.00;;;;;;;;;;10399895;28;20462;-45
2022/06/09 21:51:36;;;;;;;7.53;2.00;;;;;;;;;;10398163;28;20470;-44
2022/06/09 21:56:36;;;;;;;4.68;1.70;;;;;;;;;;10400578;28;20018;-42
2022/06/09 22:01:37;;;;;;;7.18;1.50;;;;;;;;;;10404761;28;20432;-43
2022/06/09 22:06:37;;;;;;;3.30;1.40;;;;;;;;;;10407319;28;20104;-42
2022/06/09 22:11:38;;;;;;;2.55;1.40;;;;;;;;;;10402404;28;20052;-43
2022/06/09 22:16:39;;;;;;;2.35;1.38;;;;;;;;;;10411994;28;20052;-45
2022/06/09 22:21:39;;;;;;;3.17;1.38;;;;;;;;;;10408109;28;20033;-43
2022/06/09 22:26:40;;;;;;;1.83;1.27;;;;;;;;;;10407931;28;20076;-43
2022/06/09 22:31:41;;;;;;;6.70;1.40;;;;;;;;;;10413454;28;20346;-45
2022/06/09 22:36:42;;;;;;;3.38;1.20;;;;;;;;;;10409583;28;20033;-44
2022/06/09 22:41:42;;;;;;;4.50;1.23;;;;;;;;;;10412305;28;20044;-43
2022/06/09 22:46:43;;;;;;;3.30;1.00;;;;;;;;;;10411280;28;20259;-43
2022/06/09 22:51:44;;;;;;;5.30;1.10;;;;;;;;;;10396112;28;20105;-43
2022/06/09 22:56:44;;;;;;;2.88;1.30;;;;;;;;;;10406566;28;20021;-43
2022/06/09 23:01:45;;;;;;;1.75;1.10;;;;;;;;;;10402134;28;20030;-43
2022/06/09 23:06:45;;;;;;;3.17;1.20;;;;;;;;;;10397092;28;20516;-43
2022/06/09 23:11:46;;;;;;;4.00;1.30;;;;;;;;;;10394732;28;20025;-45
2022/06/09 23:16:47;;;;;;;6.93;1.15;;;;;;;;;;10396050;28;20045;-43
2022/06/09 23:21:47;;;;;;;2.03;1.00;;;;;;;;;;10409998;28;20040;-42
2022/06/09 23:26:48;;;;;;;1.75;1.20;;;;;;;;;;10396059;28;20029;-42
2022/06/09 23:31:49;;;;;;;2.92;1.42;;;;;;;;;;10410820;28;20033;-42
2022/06/09 23:36:49;;;;;;;2.65;1.10;;;;;;;;;;10404286;28;20612;-42
2022/06/09 23:41:50;;;;;;;3.97;1.10;;;;;;;;;;10410748;28;20033;-42
2022/06/09 23:46:50;;;;;;;2.38;1.02;;;;;;;;;;10407098;28;20025;-42
2022/06/09 23:51:51;;;;;;;3.60;2.00;;;;;;;;;;10410033;28;20021;-42
2022/06/09 23:56:52;;;;;;;11.25;1.30;;;;;;;;;;10403311;28;20055;-42
